createdAt,value
2019-02-04T00:01:40.436Z,99.90
2019-02-04T00:04:10.954Z,99.90
2019-02-04T00:06:41.618Z,99.90
2019-02-04T00:09:12.135Z,99.90
2019-02-04T00:11:42.624Z,99.90
2019-02-04T00:14:13.491Z,99.90
2019-02-04T00:16:44.020Z,99.90
2019-02-04T00:19:14.529Z,99.90
2019-02-04T00:21:44.974Z,99.90
2019-02-04T00:24:15.463Z,99.90
2019-02-04T00:26:51.550Z,99.90
2019-02-04T00:29:18.499Z,99.90
2019-02-04T00:31:48.968Z,99.90
2019-02-04T00:34:19.441Z,99.90
2019-02-04T00:36:49.903Z,99.90
2019-02-04T00:39:20.702Z,99.90
2019-02-04T00:41:51.180Z,99.90
2019-02-04T00:44:21.754Z,99.90
2019-02-04T00:46:52.718Z,99.90
2019-02-04T00:49:23.468Z,99.90
2019-02-04T00:51:53.954Z,99.90
2019-02-04T00:54:24.410Z,99.90
2019-02-04T00:56:54.953Z,99.90
2019-02-04T00:59:25.416Z,99.90
2019-02-04T01:01:56.063Z,99.90
2019-02-04T01:04:26.510Z,99.90
2019-02-04T01:06:57.375Z,99.90
2019-02-04T01:09:27.929Z,99.90
2019-02-04T01:11:58.558Z,99.90
2019-02-04T01:14:29.047Z,99.90
2019-02-04T01:17:03.462Z,99.90
2019-02-04T01:19:31.762Z,99.90
2019-02-04T01:22:02.219Z,99.90
2019-02-04T01:24:32.715Z,99.90
2019-02-04T01:27:03.167Z,99.90
2019-02-04T01:29:33.636Z,99.90
2019-02-04T01:32:04.632Z,99.90
2019-02-04T01:34:35.126Z,99.90
2019-02-04T01:37:05.748Z,99.90
2019-02-04T01:39:36.223Z,99.90
2019-02-04T01:42:06.830Z,99.90
2019-02-04T01:44:37.751Z,99.90
2019-02-04T01:47:14.670Z,99.90
2019-02-04T01:49:41.985Z,99.90
2019-02-04T01:52:12.439Z,99.90
2019-02-04T01:54:42.932Z,99.90
2019-02-04T01:57:13.754Z,99.90
2019-02-04T01:59:44.266Z,99.90
2019-02-04T02:02:14.712Z,99.90
2019-02-04T02:04:45.230Z,99.90
2019-02-04T02:07:15.813Z,99.90
2019-02-04T02:09:46.376Z,99.90
2019-02-04T02:12:16.826Z,99.90
2019-02-04T02:14:47.309Z,99.90
2019-02-04T02:17:26.038Z,99.90
2019-02-04T02:19:49.934Z,99.90
2019-02-04T02:22:20.464Z,99.90
2019-02-04T02:24:50.949Z,99.90
2019-02-04T02:27:21.413Z,99.90
2019-02-04T02:29:52.191Z,99.90
2019-02-04T02:32:22.654Z,99.90
2019-02-04T02:34:53.202Z,99.50
2019-02-04T02:37:23.659Z,98.90
2019-02-04T02:39:54.142Z,99.10
2019-02-04T02:42:24.693Z,98.50
2019-02-04T02:44:55.179Z,99.00
2019-02-04T02:47:37.660Z,99.50
2019-02-04T02:49:57.900Z,99.50
2019-02-04T02:52:28.361Z,99.60
2019-02-04T02:54:58.837Z,99.90
2019-02-04T02:57:29.292Z,99.90
2019-02-04T02:59:59.877Z,99.90
2019-02-04T03:02:30.752Z,99.90
2019-02-04T03:05:01.208Z,99.30
2019-02-04T03:07:31.714Z,98.70
2019-02-04T03:10:02.168Z,98.40
2019-02-04T03:12:32.647Z,98.50
2019-02-04T03:15:03.139Z,98.30
2019-02-04T03:17:33.597Z,98.10
2019-02-04T03:20:06.235Z,97.70
2019-02-04T03:22:36.752Z,98.20
2019-02-04T03:25:13.628Z,99.00
2019-02-04T03:27:44.436Z,98.60
2019-02-04T03:30:30.520Z,98.70
2019-02-04T03:33:01.026Z,98.40
2019-02-04T03:35:31.754Z,98.10
2019-02-04T03:38:02.627Z,98.40
2019-02-04T03:40:33.607Z,97.80
2019-02-04T03:43:04.090Z,97.90
2019-02-04T03:45:34.639Z,98.20
2019-02-04T03:48:05.222Z,98.80
2019-02-04T03:50:37.402Z,98.90
2019-02-04T03:53:07.877Z,99.90
2019-02-04T03:55:38.415Z,99.90
2019-02-04T03:58:08.970Z,99.50
2019-02-04T04:00:39.434Z,99.10
2019-02-04T04:03:10.382Z,98.30
2019-02-04T04:05:40.888Z,98.40
2019-02-04T04:08:11.381Z,99.90
2019-02-04T04:10:41.905Z,99.90
2019-02-04T04:13:12.394Z,99.90
2019-02-04T04:15:43.235Z,99.90
2019-02-04T04:18:15.989Z,99.90
2019-02-04T04:20:45.862Z,99.90
2019-02-04T04:23:16.348Z,99.90
2019-02-04T04:25:46.807Z,99.90
2019-02-04T04:28:18.844Z,99.90
2019-02-04T04:30:49.299Z,99.90
2019-02-04T04:33:19.821Z,99.90
2019-02-04T04:35:50.309Z,99.90
2019-02-04T04:38:20.758Z,99.90
2019-02-04T04:40:51.240Z,99.90
2019-02-04T04:43:21.723Z,99.90
2019-02-04T04:45:52.176Z,99.90
2019-02-04T04:48:26.700Z,99.90
2019-02-04T04:50:54.821Z,99.90
2019-02-04T04:53:25.306Z,99.90
2019-02-04T04:55:55.834Z,99.90
2019-02-04T04:58:26.325Z,99.90
2019-02-04T05:00:56.787Z,99.90
2019-02-04T05:03:27.266Z,99.10
2019-02-04T05:05:57.719Z,97.80
2019-02-04T05:08:28.577Z,96.60
2019-02-04T05:10:59.028Z,95.30
2019-02-04T05:13:29.524Z,95.00
2019-02-04T05:16:00.066Z,94.90
2019-02-04T05:18:37.729Z,94.70
2019-02-04T05:21:02.733Z,94.00
2019-02-04T05:23:33.191Z,93.90
2019-02-04T05:26:03.679Z,94.20
2019-02-04T05:28:34.133Z,94.80
2019-02-04T05:31:04.657Z,94.60
2019-02-04T05:33:35.194Z,94.50
2019-02-04T05:36:05.715Z,93.90
2019-02-04T05:38:36.195Z,94.10
2019-02-04T05:41:06.712Z,93.80
2019-02-04T05:43:37.165Z,93.40
2019-02-04T05:46:07.714Z,93.50
2019-02-04T05:48:48.835Z,93.60
2019-02-04T05:51:12.466Z,94.00
2019-02-04T05:53:42.917Z,94.20
2019-02-04T05:56:13.397Z,94.30
2019-02-04T05:58:44.814Z,94.50
2019-02-04T06:01:15.259Z,94.90
2019-02-04T06:03:45.764Z,94.90
2019-02-04T06:06:16.531Z,95.00
2019-02-04T06:08:47.023Z,94.60
2019-02-04T06:11:17.508Z,94.60
2019-02-04T06:13:48.127Z,94.90
2019-02-04T06:16:18.609Z,94.50
2019-02-04T06:19:00.098Z,94.80
2019-02-04T06:21:21.254Z,94.00
2019-02-04T06:23:51.713Z,93.90
2019-02-04T06:26:22.463Z,94.00
2019-02-04T06:28:52.914Z,93.60
2019-02-04T06:31:24.265Z,93.90
2019-02-04T06:33:54.759Z,94.10
2019-02-04T06:36:25.293Z,94.30
2019-02-04T06:38:56.146Z,94.50
2019-02-04T06:41:26.601Z,94.70
2019-02-04T06:43:57.083Z,94.90
2019-02-04T06:46:27.537Z,94.80
2019-02-04T06:48:58.695Z,94.90
2019-02-04T06:51:29.158Z,94.90
2019-02-04T06:53:59.643Z,94.90
2019-02-04T06:56:30.133Z,94.90
2019-02-04T06:59:00.587Z,94.80
2019-02-04T07:01:31.138Z,95.10
2019-02-04T07:04:01.607Z,95.00
2019-02-04T07:06:32.267Z,95.30
2019-02-04T07:09:02.824Z,95.50
2019-02-04T07:11:33.302Z,95.80
2019-02-04T07:14:03.760Z,95.40
2019-02-04T07:16:34.258Z,94.90
2019-02-04T07:19:05.104Z,94.50
2019-02-04T07:21:35.661Z,94.30
2019-02-04T07:24:06.457Z,93.60
2019-02-04T07:26:36.948Z,93.10
2019-02-04T07:29:07.406Z,93.10
2019-02-04T07:31:37.981Z,92.40
2019-02-04T07:34:08.499Z,92.50
2019-02-04T07:36:38.984Z,92.80
2019-02-04T07:39:09.577Z,92.50
2019-02-04T07:41:40.077Z,92.40
2019-02-04T07:44:10.601Z,91.70
2019-02-04T07:46:41.464Z,91.00
2019-02-04T07:49:11.961Z,91.70
2019-02-04T07:51:43.882Z,91.50
2019-02-04T07:54:27.635Z,90.60
2019-02-04T07:56:58.370Z,91.00
2019-02-04T07:59:28.860Z,90.90
2019-02-04T08:01:59.348Z,90.50
2019-02-04T08:04:29.808Z,87.60
2019-02-04T08:07:00.311Z,88.40
2019-02-04T08:09:30.737Z,88.60
2019-02-04T08:12:01.220Z,88.50
2019-02-04T08:14:31.683Z,88.50
2019-02-04T08:17:02.194Z,89.90
2019-02-04T08:19:32.682Z,88.20
2019-02-04T08:22:03.166Z,88.90
2019-02-04T08:24:34.026Z,86.90
2019-02-04T08:27:04.544Z,85.80
2019-02-04T08:29:35.170Z,90.30
2019-02-04T08:32:06.275Z,86.30
2019-02-04T08:34:38.259Z,84.80
2019-02-04T08:37:09.130Z,85.80
2019-02-04T08:39:39.585Z,85.10
2019-02-04T08:42:10.133Z,86.60
2019-02-04T08:44:41.387Z,87.60
2019-02-04T08:47:22.828Z,85.70
2019-02-04T08:49:57.695Z,84.40
2019-02-04T08:52:19.353Z,84.20
2019-02-04T08:54:49.834Z,85.70
2019-02-04T08:57:20.384Z,85.10
2019-02-04T08:59:50.923Z,85.50
2019-02-04T09:02:21.418Z,86.20
2019-02-04T09:04:52.254Z,87.10
2019-02-04T09:07:24.832Z,87.40
2019-02-04T09:09:55.291Z,87.20
2019-02-04T09:12:25.923Z,85.80
2019-02-04T09:14:56.416Z,85.90
2019-02-04T09:17:26.867Z,85.70
2019-02-04T09:19:57.383Z,85.20
2019-02-04T09:22:27.830Z,83.60
2019-02-04T09:24:58.308Z,85.20
2019-02-04T09:27:28.829Z,85.00
2019-02-04T09:29:59.352Z,84.90
2019-02-04T09:32:30.270Z,87.00
2019-02-04T09:35:00.732Z,86.10
2019-02-04T09:37:31.212Z,86.60
2019-02-04T09:40:01.702Z,86.40
2019-02-04T09:42:32.216Z,87.20
2019-02-04T09:45:02.730Z,87.70
2019-02-04T09:47:33.687Z,87.80
2019-02-04T09:50:06.464Z,87.80
2019-02-04T09:52:38.586Z,87.70
2019-02-04T09:55:29.631Z,87.00
2019-02-04T09:58:00.161Z,86.20
2019-02-04T10:00:34.038Z,86.50
2019-02-04T10:03:05.618Z,87.30
2019-02-04T10:05:36.693Z,86.80
2019-02-04T10:08:08.473Z,88.30
2019-02-04T10:10:38.914Z,88.30
2019-02-04T10:13:10.046Z,88.40
2019-02-04T10:15:45.843Z,87.80
2019-02-04T10:18:16.391Z,88.40
2019-02-04T10:20:46.979Z,87.50
2019-02-04T10:23:17.571Z,88.50
2019-02-04T10:25:48.054Z,87.80
2019-02-04T10:28:18.547Z,86.90
2019-02-04T10:30:48.997Z,87.80
2019-02-04T10:33:19.592Z,86.10
2019-02-04T10:35:50.142Z,87.00
2019-02-04T10:38:24.557Z,86.50
2019-02-04T10:40:55.056Z,87.70
2019-02-04T10:43:25.761Z,88.20
2019-02-04T10:45:56.237Z,87.20
2019-02-04T10:48:26.853Z,88.20
2019-02-04T10:50:57.434Z,88.20
2019-02-04T10:53:28.665Z,90.10
2019-02-04T10:55:59.129Z,90.00
2019-02-04T10:58:30.150Z,88.90
2019-02-04T11:01:01.297Z,89.10
2019-02-04T11:03:31.815Z,89.20
2019-02-04T11:06:02.290Z,88.00
2019-02-04T11:08:33.078Z,88.80
2019-02-04T11:11:03.768Z,90.00
2019-02-04T11:13:34.299Z,88.00
2019-02-04T11:16:05.686Z,89.50
2019-02-04T11:18:36.306Z,88.80
2019-02-04T11:21:06.936Z,89.00
2019-02-04T11:23:37.703Z,89.20
2019-02-04T11:26:08.199Z,89.40
2019-02-04T11:28:39.273Z,87.80
2019-02-04T11:31:10.168Z,88.30
2019-02-04T11:33:40.810Z,87.20
2019-02-04T11:36:12.084Z,88.10
2019-02-04T11:38:42.611Z,88.40
2019-02-04T11:41:13.208Z,88.40
2019-02-04T11:43:43.691Z,88.90
2019-02-04T11:46:14.140Z,88.80
2019-02-04T11:48:44.788Z,89.30
2019-02-04T11:51:15.507Z,88.80
2019-02-04T11:53:45.968Z,90.00
2019-02-04T11:56:19.440Z,90.00
2019-02-04T11:58:49.891Z,90.50
2019-02-04T12:01:20.531Z,90.50
2019-02-04T12:03:51.257Z,90.60
2019-02-04T12:06:21.733Z,90.70
2019-02-04T12:08:52.275Z,90.80
2019-02-04T12:11:22.800Z,90.80
2019-02-04T12:13:54.386Z,90.50
2019-02-04T12:16:24.918Z,90.90
2019-02-04T12:18:55.398Z,90.60
2019-02-04T12:21:26.131Z,90.40
2019-02-04T12:23:56.596Z,90.00
2019-02-04T12:26:27.105Z,90.00
2019-02-04T12:28:59.336Z,90.00
2019-02-04T12:31:29.822Z,87.50
2019-02-04T12:34:00.338Z,85.20
2019-02-04T12:36:30.822Z,84.60
2019-02-04T12:39:01.396Z,84.80
2019-02-04T12:41:31.868Z,84.40
2019-02-04T12:44:04.561Z,83.20
2019-02-04T12:46:35.089Z,80.00
2019-02-04T12:49:05.727Z,82.50
2019-02-04T12:51:36.182Z,83.90
2019-02-04T12:54:06.758Z,83.70
2019-02-04T12:56:37.582Z,84.40
2019-02-04T12:59:08.131Z,85.80
2019-02-04T13:01:38.658Z,87.40
2019-02-04T13:04:10.484Z,87.70
2019-02-04T13:06:40.956Z,88.40
2019-02-04T13:09:11.454Z,89.60
2019-02-04T13:11:41.900Z,89.50
2019-02-04T13:14:12.697Z,89.60
2019-02-04T13:16:43.248Z,89.40
2019-02-04T13:19:13.767Z,90.10
2019-02-04T13:21:45.811Z,90.20
2019-02-04T13:24:16.363Z,89.60
2019-02-04T13:26:48.271Z,90.10
2019-02-04T13:29:18.773Z,90.50
2019-02-04T13:31:49.203Z,90.30
2019-02-04T13:34:19.809Z,89.90
2019-02-04T13:36:50.336Z,90.10
2019-02-04T13:39:20.880Z,89.50
2019-02-04T13:41:51.351Z,90.00
2019-02-04T13:44:22.060Z,90.50
2019-02-04T13:46:52.545Z,90.20
2019-02-04T13:49:23.381Z,90.90
2019-02-04T13:51:57.567Z,91.00
2019-02-04T13:54:26.091Z,90.80
2019-02-04T13:56:57.489Z,90.70
2019-02-04T13:59:27.933Z,90.30
2019-02-04T14:01:58.911Z,90.30
2019-02-04T14:04:29.401Z,90.10
2019-02-04T14:06:59.857Z,90.50
2019-02-04T14:09:30.452Z,90.50
2019-02-04T14:12:00.878Z,90.40
2019-02-04T14:14:32.172Z,90.30
2019-02-04T14:17:02.690Z,90.30
2019-02-04T14:19:33.259Z,90.10
2019-02-04T14:22:09.292Z,89.60
2019-02-04T14:24:56.810Z,90.50
2019-02-04T14:27:27.290Z,90.80
2019-02-04T14:29:57.858Z,90.50
2019-02-04T14:32:28.364Z,91.10
2019-02-04T14:34:59.027Z,91.50
2019-02-04T14:37:29.797Z,91.80
2019-02-04T14:40:00.455Z,91.20
2019-02-04T14:42:30.888Z,90.90
2019-02-04T14:45:03.165Z,91.00
2019-02-04T14:47:37.763Z,91.20
2019-02-04T14:50:24.832Z,91.50
2019-02-04T14:53:08.088Z,91.90
2019-02-04T14:56:16.580Z,92.00
2019-02-04T14:58:58.628Z,91.80
2019-02-04T15:01:59.247Z,91.90
2019-02-04T15:04:50.917Z,92.00
2019-02-04T15:07:26.121Z,92.20
2019-02-04T15:10:13.199Z,92.40
2019-02-04T15:13:08.569Z,92.40
2019-02-04T15:15:58.960Z,92.80
2019-02-04T15:19:00.413Z,92.70
2019-02-04T15:22:14.999Z,92.60
2019-02-04T15:25:29.335Z,92.70
2019-02-04T15:28:46.076Z,92.70
2019-02-04T15:31:30.279Z,93.10
2019-02-04T15:34:28.162Z,93.60
2019-02-04T15:37:24.761Z,93.80
2019-02-04T15:40:10.276Z,94.00
2019-02-04T15:43:04.423Z,93.80
2019-02-04T15:45:51.895Z,94.10
2019-02-04T15:48:27.018Z,94.40
2019-02-04T15:51:02.190Z,94.90
2019-02-04T15:53:32.681Z,94.60
2019-02-04T15:56:04.480Z,94.60
2019-02-04T15:58:34.976Z,94.50
2019-02-04T16:01:07.848Z,94.60
2019-02-04T16:03:39.036Z,94.70
2019-02-04T16:06:09.574Z,95.80
2019-02-04T16:08:40.132Z,96.40
2019-02-04T16:11:12.618Z,96.50
2019-02-04T16:13:45.122Z,96.50
2019-02-04T16:16:15.649Z,96.60
2019-02-04T16:18:46.685Z,96.70
2019-02-04T16:21:18.706Z,96.70
2019-02-04T16:23:49.220Z,97.20
2019-02-04T16:26:22.826Z,97.40
2019-02-04T16:28:57.274Z,97.60
2019-02-04T16:31:27.790Z,97.50
2019-02-04T16:33:58.288Z,97.50
2019-02-04T16:36:28.747Z,97.70
2019-02-04T16:39:00.969Z,97.80
2019-02-04T16:41:31.435Z,97.60
2019-02-04T16:44:01.982Z,98.00
2019-02-04T16:46:33.311Z,98.20
2019-02-04T16:49:03.983Z,98.40
2019-02-04T16:51:34.545Z,98.30
2019-02-04T16:54:05.559Z,98.30
2019-02-04T16:56:36.048Z,98.80
2019-02-04T16:59:06.647Z,98.70
2019-02-04T17:01:37.553Z,98.60
2019-02-04T17:04:08.017Z,98.50
2019-02-04T17:06:38.669Z,98.40
2019-02-04T17:09:09.594Z,98.20
2019-02-04T17:11:40.078Z,98.20
2019-02-04T17:14:10.638Z,98.50
2019-02-04T17:16:41.137Z,98.80
2019-02-04T17:19:11.590Z,99.10
2019-02-04T17:21:42.082Z,99.30
2019-02-04T17:24:12.549Z,99.40
2019-02-04T17:26:43.056Z,99.40
2019-02-04T17:29:13.900Z,99.60
2019-02-04T17:31:44.403Z,99.50
2019-02-04T17:34:14.930Z,99.40
2019-02-04T17:36:45.486Z,99.40
2019-02-04T17:39:16.021Z,99.60
2019-02-04T17:41:46.618Z,99.60
2019-02-04T17:44:17.199Z,99.50
2019-02-04T17:46:47.666Z,99.60
2019-02-04T17:49:18.172Z,99.90
2019-02-04T17:51:50.234Z,99.90
2019-02-04T17:54:20.736Z,99.90
2019-02-04T17:56:51.303Z,99.90
2019-02-04T17:59:23.160Z,99.90
2019-02-04T18:01:54.081Z,99.70
2019-02-04T18:04:24.543Z,99.60
2019-02-04T18:06:55.050Z,99.90
2019-02-04T18:09:25.899Z,99.90
2019-02-04T18:11:56.462Z,99.90
2019-02-04T18:14:26.925Z,99.90
2019-02-04T18:16:57.503Z,99.90
2019-02-04T18:19:27.956Z,99.90
2019-02-04T18:21:58.752Z,99.90
2019-02-04T18:24:29.214Z,99.90
2019-02-04T18:27:00.088Z,99.90
2019-02-04T18:29:30.600Z,99.90
2019-02-04T18:32:01.566Z,99.90
2019-02-04T18:34:32.933Z,99.90
2019-02-04T18:37:03.545Z,99.90
2019-02-04T18:39:35.130Z,99.90
2019-02-04T18:42:05.830Z,99.90
2019-02-04T18:44:36.701Z,99.90
2019-02-04T18:47:07.237Z,99.90
2019-02-04T18:49:37.734Z,99.90
2019-02-04T18:52:08.368Z,99.90
2019-02-04T18:54:39.069Z,99.90
2019-02-04T18:57:09.571Z,99.90
2019-02-04T18:59:40.652Z,99.90
2019-02-04T19:02:11.229Z,99.90
2019-02-04T19:04:42.971Z,99.90
2019-02-04T19:07:13.763Z,99.90
2019-02-04T19:09:44.250Z,99.90
2019-02-04T19:12:15.258Z,99.90
2019-02-04T19:14:45.757Z,99.90
2019-02-04T19:17:16.259Z,99.90
2019-02-04T19:19:46.773Z,99.90
2019-02-04T19:22:17.232Z,99.90
2019-02-04T19:24:47.722Z,99.90
2019-02-04T19:27:19.513Z,99.90
2019-02-04T19:29:49.982Z,99.90
2019-02-04T19:32:20.470Z,99.90
2019-02-04T19:34:51.705Z,99.90
2019-02-04T19:37:22.969Z,99.90
2019-02-04T19:39:54.640Z,99.90
2019-02-04T19:42:25.772Z,99.90
2019-02-04T19:44:56.267Z,99.90
2019-02-04T19:47:26.722Z,99.90
2019-02-04T19:49:57.229Z,99.90
2019-02-04T19:52:27.968Z,99.90
2019-02-04T19:54:59.029Z,99.90
2019-02-04T19:57:29.488Z,99.90
2019-02-04T20:00:00.005Z,99.90
2019-02-04T20:02:30.484Z,99.90
2019-02-04T20:05:01.077Z,99.90
2019-02-04T20:07:31.584Z,99.90
2019-02-04T20:10:02.053Z,99.90
2019-02-04T20:12:33.223Z,99.90
2019-02-04T20:15:05.214Z,99.90
2019-02-04T20:17:35.700Z,99.90
2019-02-04T20:20:09.948Z,99.90
2019-02-04T20:22:40.498Z,99.90
2019-02-04T20:25:18.138Z,99.90
2019-02-04T20:27:48.681Z,99.90
2019-02-04T20:30:23.216Z,99.90
2019-02-04T20:32:53.813Z,99.90
2019-02-04T20:35:24.452Z,99.90
2019-02-04T20:37:54.977Z,99.90
2019-02-04T20:40:27.462Z,99.90
2019-02-04T20:42:58.199Z,99.90
2019-02-04T20:45:28.783Z,99.90
2019-02-04T20:47:59.251Z,99.90
2019-02-04T20:50:34.500Z,99.90
2019-02-04T20:53:05.640Z,99.90
2019-02-04T20:55:36.176Z,99.90
2019-02-04T20:58:07.303Z,99.90
2019-02-04T21:00:37.942Z,99.90
2019-02-04T21:03:08.470Z,99.90
2019-02-04T21:05:38.953Z,99.90
2019-02-04T21:08:09.566Z,99.90
2019-02-04T21:10:40.504Z,99.90
2019-02-04T21:13:11.051Z,99.90
2019-02-04T21:15:41.594Z,99.90
2019-02-04T21:18:12.052Z,99.90
2019-02-04T21:20:42.627Z,99.90
2019-02-04T21:23:13.090Z,99.90
2019-02-04T21:25:43.643Z,99.90
2019-02-04T21:28:14.112Z,99.90
2019-02-04T21:30:44.671Z,99.90
2019-02-04T21:33:15.160Z,99.90
2019-02-04T21:35:45.717Z,99.90
2019-02-04T21:38:16.365Z,99.90
2019-02-04T21:40:46.977Z,99.90
2019-02-04T21:43:17.424Z,99.90
2019-02-04T21:45:47.909Z,99.90
2019-02-04T21:48:18.399Z,99.90
2019-02-04T21:50:49.240Z,99.90
2019-02-04T21:53:19.716Z,99.90
2019-02-04T21:55:50.179Z,99.90
2019-02-04T21:58:20.672Z,99.90
2019-02-04T22:00:51.132Z,99.90
2019-02-04T22:03:21.620Z,99.90
2019-02-04T22:05:52.116Z,99.90
2019-02-04T22:08:22.582Z,99.90
2019-02-04T22:10:53.447Z,99.90
2019-02-04T22:13:23.918Z,99.90
2019-02-04T22:15:54.775Z,99.90
2019-02-04T22:18:25.372Z,99.90
2019-02-04T22:20:56.018Z,99.90
2019-02-04T22:23:26.471Z,99.90
2019-02-04T22:25:57.343Z,99.90
2019-02-04T22:28:27.809Z,99.90
2019-02-04T22:30:58.843Z,99.90
2019-02-04T22:33:30.640Z,99.90
2019-02-04T22:36:01.153Z,99.90
2019-02-04T22:38:31.625Z,99.90
2019-02-04T22:41:02.123Z,99.90
2019-02-04T22:43:32.579Z,99.90
2019-02-04T22:46:03.639Z,99.90
2019-02-04T22:48:34.102Z,99.90
2019-02-04T22:51:04.826Z,99.90
2019-02-04T22:53:35.389Z,99.90
2019-02-04T22:56:06.091Z,99.90
2019-02-04T22:58:36.574Z,99.90
2019-02-04T23:01:26.932Z,99.90
2019-02-04T23:03:57.436Z,99.90
2019-02-04T23:06:27.924Z,99.90
2019-02-04T23:08:58.416Z,99.90
2019-02-04T23:11:29.027Z,99.90
2019-02-04T23:13:59.742Z,99.90
2019-02-04T23:16:30.223Z,99.90
2019-02-04T23:19:00.781Z,99.90
2019-02-04T23:21:31.237Z,99.90
2019-02-04T23:24:01.738Z,99.90
2019-02-04T23:26:32.221Z,99.90
2019-02-04T23:29:02.691Z,99.90
2019-02-04T23:31:33.166Z,99.90
2019-02-04T23:34:03.692Z,99.90
2019-02-04T23:36:34.477Z,99.90
2019-02-04T23:39:08.879Z,99.90
2019-02-04T23:41:39.335Z,99.90
2019-02-04T23:44:09.837Z,99.90
2019-02-04T23:46:40.303Z,99.90
2019-02-04T23:49:11.172Z,99.90
2019-02-04T23:51:41.713Z,99.90
2019-02-04T23:54:12.209Z,99.90
2019-02-04T23:56:42.660Z,99.90
2019-02-04T23:59:13.181Z,99.90
